Time;durP1;ratioP1;P1;durP2;ratioP2;P2;SDS_P1;SDS_P2;PMS_P1;PMS_P2;Temp;Humidity;BMP_temperature;BMP_pressure;BME280_temperature;BME280_humidity;BME280_pressure;Samples;Min_cycle;Max_cycle;Signal;HPM_P1;HPM_P2
2021/12/13 02:19:00;;;;;;;1.23;0.60;;;;;;;0.40;57.55;95026.84;4920290;29;20068;-84
2021/12/13 02:21:36;;;;;;;1.20;0.68;;;;;;;0.34;57.31;95025.81;4904411;29;20135;-84
2021/12/13 02:24:07;;;;;;;0.95;0.57;;;;;;;0.63;51.99;95025.81;4881753;29;20021;-84
2021/12/13 02:26:58;;;;;;;0.43;0.40;;;;;;;0.71;56.99;95025.66;4901449;29;20041;-84
2021/12/13 02:29:35;;;;;;;1.00;0.70;;;;;;;1.20;51.33;95023.94;4908879;29;20032;-84
2021/12/13 02:32:01;;;;;;;0.98;0.50;;;;;;;1.15;53.73;95028.91;4907730;29;20462;-84
2021/12/13 02:34:30;;;;;;;1.73;0.70;;;;;;;0.98;54.39;95036.94;4913766;29;20036;-84
2021/12/13 02:36:56;;;;;;;0.38;0.38;;;;;;;0.78;53.45;95030.88;4892506;29;20036;-84
2021/12/13 02:39:30;;;;;;;0.80;0.60;;;;;;;0.87;52.43;95034.91;4901287;29;20092;-84
2021/12/13 02:41:56;;;;;;;1.83;0.50;;;;;;;0.91;53.41;95030.16;4879063;29;20349;-84
2021/12/13 02:44:35;;;;;;;0.57;0.50;;;;;;;1.13;51.02;95029.09;4902364;29;20029;-84
2021/12/13 02:47:05;;;;;;;0.75;0.30;;;;;;;1.57;49.78;95021.09;4902531;29;20489;-84
2021/12/13 02:49:32;;;;;;;0.70;0.30;;;;;;;1.84;49.16;95021.19;4901629;29;20319;-84
2021/12/13 02:52:02;;;;;;;0.40;0.40;;;;;;;1.79;48.66;95015.78;4900626;29;20037;-84
2021/12/13 02:54:38;;;;;;;0.88;0.40;;;;;;;1.72;48.24;95017.56;4900281;29;20037;-84
2021/12/13 02:57:17;;;;;;;1.27;0.50;;;;;;;1.87;50.21;95022.59;4895893;29;20036;-84
2021/12/13 02:59:48;;;;;;;0.43;0.30;;;;;;;1.57;51.67;95021.09;4902609;29;20033;-84
2021/12/13 03:02:24;;;;;;;0.98;0.55;;;;;;;1.32;52.62;95031.16;4884967;29;20028;-84
2021/12/13 03:04:50;;;;;;;0.68;0.40;;;;;;;1.29;53.10;95034.91;4900862;29;20076;-84
2021/12/13 03:07:26;;;;;;;0.70;0.60;;;;;;;1.22;54.61;95034.88;4897014;29;20030;-84
2021/12/13 03:09:54;;;;;;;0.60;0.30;;;;;;;0.95;54.60;95034.75;4887129;29;20096;-84
2021/12/13 03:12:21;;;;;;;0.40;0.40;;;;;;;0.99;54.73;95032.59;4900563;29;20036;-84
2021/12/13 03:14:58;;;;;;;0.90;0.50;;;;;;;0.79;54.81;95030.69;4901934;29;20039;-84
2021/12/13 03:17:31;;;;;;;0.30;0.30;;;;;;;0.92;54.41;95032.53;4900738;29;20035;-84
2021/12/13 03:20:14;;;;;;;0.95;0.50;;;;;;;1.03;53.43;95036.38;4879105;29;20044;-84
2021/12/13 03:22:57;;;;;;;0.75;0.47;;;;;;;1.10;53.68;95032.06;4901622;29;20502;-84
2021/12/13 03:25:48;;;;;;;0.57;0.43;;;;;;;0.90;55.32;95044.84;4900495;29;20335;-84
2021/12/13 03:28:32;;;;;;;1.77;0.52;;;;;;;0.72;54.67;95044.50;4900615;29;20084;-84
2021/12/13 03:31:03;;;;;;;0.80;0.40;;;;;;;0.60;54.11;95044.25;4900940;29;20124;-84
2021/12/13 03:33:33;;;;;;;0.60;0.30;;;;;;;0.42;54.26;95040.34;4900259;29;20457;-84
2021/12/13 03:36:04;;;;;;;1.15;0.40;;;;;;;0.52;53.68;95040.03;4901791;29;20040;-84
2021/12/13 03:38:39;;;;;;;0.88;0.55;;;;;;;0.56;53.77;95041.22;4884958;29;20028;-84
2021/12/13 03:41:09;;;;;;;0.40;0.30;;;;;;;0.64;53.44;95045.44;4900259;29;20453;-84
2021/12/13 03:43:41;;;;;;;0.63;0.40;;;;;;;0.75;54.43;95037.19;4899950;29;20037;-84
2021/12/13 03:46:09;;;;;;;0.30;0.30;;;;;;;0.71;52.47;95048.88;4901818;29;20450;-84
2021/12/13 03:48:36;;;;;;;1.45;0.50;;;;;;;1.20;51.41;95042.03;4900536;29;20040;-84
2021/12/13 03:51:11;;;;;;;0.90;0.52;;;;;;;1.22;50.52;95047.78;4900348;29;20505;-84
2021/12/13 03:53:38;;;;;;;0.73;0.38;;;;;;;0.96;51.05;95046.66;4900147;29;20036;-84
2021/12/13 03:56:13;;;;;;;0.63;0.30;;;;;;;1.05;51.58;95052.47;4900249;29;20349;-84
2021/12/13 03:58:43;;;;;;;0.40;0.32;;;;;;;1.14;50.25;95055.69;4900441;29;20358;-84
2021/12/13 04:01:14;;;;;;;0.35;0.30;;;;;;;1.21;50.04;95059.09;4910008;29;20032;-84
2021/12/13 04:03:40;;;;;;;0.93;0.57;;;;;;;1.26;49.88;95050.78;4903679;29;20080;-85
2021/12/13 04:06:06;;;;;;;0.75;0.40;;;;;;;1.30;50.23;95051.22;4906112;29;20048;-84
2021/12/13 04:08:32;;;;;;;0.75;0.50;;;;;;;1.51;49.23;95052.91;4900182;29;20052;-84
2021/12/13 04:11:03;;;;;;;0.30;0.30;;;;;;;1.51;47.91;95056.25;4884620;29;20047;-84
2021/12/13 04:13:35;;;;;;;0.75;0.32;;;;;;;1.61;48.36;95053.31;4902388;29;20032;-84
2021/12/13 04:16:30;;;;;;;0.63;0.40;;;;;;;1.62;47.08;95047.16;4889169;29;20040;-84
2021/12/13 04:19:11;;;;;;;0.40;0.30;;;;;;;1.48;48.24;95051.47;4902726;29;20051;-84
2021/12/13 04:21:40;;;;;;;1.00;0.60;;;;;;;1.47;49.20;95056.81;4889425;29;20051;-84
2021/12/13 04:24:10;;;;;;;0.95;0.50;;;;;;;1.41;48.44;95059.19;4920340;29;20133;-84
2021/12/13 04:26:43;;;;;;;0.63;0.30;;;;;;;1.26;48.77;95048.22;4903652;29;20044;-84
2021/12/13 04:29:22;;;;;;;1.83;0.40;;;;;;;1.13;48.19;95051.50;4919028;29;20138;-84
2021/12/13 04:31:49;;;;;;;0.65;0.35;;;;;;;1.18;48.83;95043.19;4919415;29;20039;-84
2021/12/13 04:34:14;;;;;;;0.85;0.52;;;;;;;1.21;48.55;95040.22;4918436;29;20040;-84
2021/12/13 04:36:43;;;;;;;0.50;0.40;;;;;;;1.35;50.10;95039.28;4918499;29;20114;-84
2021/12/13 04:39:19;;;;;;;1.17;0.43;;;;;;;1.26;48.46;95035.31;4918919;29;20131;-84
2021/12/13 04:41:44;;;;;;;0.57;0.40;;;;;;;1.26;48.46;95036.09;4904871;29;20438;-84
2021/12/13 04:44:21;;;;;;;0.65;0.30;;;;;;;1.18;48.48;95035.44;4922059;29;20135;-84
2021/12/13 04:46:50;;;;;;;0.45;0.40;;;;;;;1.19;47.69;95035.28;4922359;29;20518;-84
2021/12/13 04:49:19;;;;;;;0.32;0.20;;;;;;;1.03;49.38;95036.38;4922254;29;20039;-84
2021/12/13 04:52:00;;;;;;;0.63;0.30;;;;;;;0.90;50.63;95036.28;4921480;29;20027;-84
2021/12/13 04:54:30;;;;;;;0.93;0.40;;;;;;;0.94;49.70;95037.53;4922117;29;20046;-84
2021/12/13 04:56:57;;;;;;;0.80;0.40;;;;;;;0.89;52.65;95037.28;4922015;29;20327;-84
2021/12/13 04:59:23;;;;;;;1.02;0.50;;;;;;;0.70;51.63;95029.25;4922228;29;20075;-84
2021/12/13 05:01:53;;;;;;;0.47;0.38;;;;;;;0.70;49.43;95027.44;4920219;29;20438;-84
2021/12/13 05:04:23;;;;;;;0.60;0.38;;;;;;;0.96;47.63;95028.59;4909839;29;20088;-84
2021/12/13 05:06:51;;;;;;;0.57;0.30;;;;;;;1.10;47.82;95026.88;4903206;29;20040;-84
2021/12/13 05:09:18;;;;;;;1.05;0.75;;;;;;;1.02;47.81;95034.00;4902966;29;20092;-84
2021/12/13 05:12:09;;;;;;;1.05;0.55;;;;;;;1.05;47.76;95031.81;4896536;29;20038;-84
2021/12/13 05:14:47;;;;;;;1.25;0.40;;;;;;;1.13;48.84;95036.03;4922191;29;20040;-84
2021/12/13 05:17:27;;;;;;;0.77;0.30;;;;;;;1.23;51.23;95036.47;4922842;29;20114;-84
2021/12/13 05:20:06;;;;;;;1.58;0.60;;;;;;;1.95;51.28;95036.13;4923148;29;20036;-84
2021/12/13 05:23:04;;;;;;;2.75;1.10;;;;;;;1.65;52.01;95033.06;4922588;29;20166;-84
2021/12/13 05:25:40;;;;;;;0.88;0.50;;;;;;;1.69;55.23;95037.66;4922561;29;20425;-85
2021/12/13 05:28:18;;;;;;;1.88;0.88;;;;;;;1.24;55.85;95043.22;4921843;29;20425;-84
2021/12/13 05:30:54;;;;;;;0.63;0.50;;;;;;;1.28;51.27;95043.66;4905913;29;20039;-84
2021/12/13 05:33:20;;;;;;;2.25;0.60;;;;;;;1.01;51.76;95045.31;4921233;29;20468;-85
2021/12/13 05:35:52;;;;;;;0.55;0.40;;;;;;;0.88;53.02;95051.97;4921277;29;20027;-84
2021/12/13 05:38:35;;;;;;;0.30;0.30;;;;;;;1.07;55.29;95049.69;4921941;29;20119;-85
2021/12/13 05:41:04;;;;;;;0.30;0.30;;;;;;;1.38;56.93;95048.44;4921497;29;20131;-85
2021/12/13 05:43:42;;;;;;;1.05;0.50;;;;;;;1.26;54.89;95040.47;4921062;29;20039;-84
2021/12/13 05:46:12;;;;;;;0.40;0.38;;;;;;;1.53;55.43;95043.16;4921381;29;20047;-84
2021/12/13 05:48:44;;;;;;;0.70;0.55;;;;;;;1.70;56.23;95043.59;4905797;29;20164;-85
2021/12/13 05:51:19;;;;;;;0.40;0.40;;;;;;;2.02;55.18;95049.06;4905220;29;20028;-85
2021/12/13 05:53:47;;;;;;;0.32;0.30;;;;;;;1.85;57.99;95051.19;4903889;29;20052;-84
2021/12/13 05:56:16;;;;;;;0.60;0.30;;;;;;;1.46;60.72;95055.22;4916330;29;20032;-84
2021/12/13 05:58:55;;;;;;;0.82;0.40;;;;;;;1.19;56.10;95058.50;4904665;29;20414;-84
2021/12/13 06:01:26;;;;;;;0.88;0.40;;;;;;;0.99;55.15;95069.50;4909366;29;20426;-84
2021/12/13 06:04:14;;;;;;;0.85;0.30;;;;;;;1.15;54.57;95064.22;4895082;29;20327;-83
2021/12/13 06:06:45;;;;;;;1.05;0.70;;;;;;;1.33;58.22;95069.69;4867899;29;20048;-84
2021/12/13 06:09:10;;;;;;;2.42;0.98;;;;;;;1.39;59.16;95071.50;4903041;29;20033;-84
2021/12/13 06:11:41;;;;;;;2.60;1.02;;;;;;;1.31;61.68;95073.47;4901626;29;20044;-84
2021/12/13 06:14:15;;;;;;;1.20;0.75;;;;;;;1.30;60.26;95077.03;4902844;29;20044;-84
2021/12/13 06:17:05;;;;;;;1.00;0.63;;;;;;;1.66;59.96;95070.81;4901152;29;20036;-84
2021/12/13 06:19:37;;;;;;;1.67;0.70;;;;;;;1.43;60.03;95074.47;4869928;29;20045;-84
2021/12/13 06:22:11;;;;;;;0.90;0.70;;;;;;;1.44;60.89;95073.53;4880677;29;20319;-84
2021/12/13 06:24:57;;;;;;;1.58;0.80;;;;;;;1.37;63.84;95080.44;4906841;29;20064;-84
2021/12/13 06:27:41;;;;;;;1.50;0.80;;;;;;;1.32;62.46;95081.00;4921870;29;20456;-84
2021/12/13 06:30:31;;;;;;;1.13;0.52;;;;;;;1.24;60.67;95083.75;4920189;29;20031;-84
2021/12/13 06:32:59;;;;;;;1.00;0.60;;;;;;;1.12;60.92;95078.31;4912865;29;20364;-84
2021/12/13 06:35:57;;;;;;;1.90;0.60;;;;;;;1.48;58.01;95074.72;4920384;29;20032;-84
2021/12/13 06:38:24;;;;;;;0.52;0.45;;;;;;;1.93;54.56;95069.09;4920155;29;20079;-84
2021/12/13 06:40:57;;;;;;;1.80;0.73;;;;;;;2.10;53.53;95066.16;4920200;29;20346;-84
2021/12/13 06:43:28;;;;;;;1.27;0.88;;;;;;;2.20;52.35;95078.72;4919962;29;20036;-84
2021/12/13 06:45:54;;;;;;;1.42;0.60;;;;;;;2.15;53.32;95073.31;4921214;29;20327;-84
2021/12/13 06:48:32;;;;;;;0.90;0.50;;;;;;;2.00;53.34;95076.88;4920105;29;20178;-84
2021/12/13 06:50:58;;;;;;;1.40;0.60;;;;;;;1.90;55.10;95086.81;4919982;29;20054;-84
2021/12/13 06:53:32;;;;;;;2.92;0.70;;;;;;;1.87;55.32;95076.84;4919987;29;20036;-84
2021/12/13 06:55:57;;;;;;;1.30;0.77;;;;;;;1.87;55.27;95072.47;4919863;29;20040;-84
2021/12/13 06:58:26;;;;;;;0.80;0.60;;;;;;;1.81;55.97;95068.88;4919585;29;20122;-84
2021/12/13 07:00:54;;;;;;;0.75;0.50;;;;;;;1.94;56.70;95077.66;4920905;29;20445;-84
2021/12/13 07:03:23;;;;;;;0.98;0.50;;;;;;;2.24;54.60;95069.56;4919178;29;20028;-84
2021/12/13 07:05:52;;;;;;;1.50;0.50;;;;;;;2.32;53.80;95071.16;4917446;29;20123;-84
2021/12/13 07:08:26;;;;;;;2.47;0.80;;;;;;;2.34;54.97;95075.16;4901053;29;20571;-84
2021/12/13 07:10:52;;;;;;;2.03;0.77;;;;;;;2.30;55.03;95079.13;4904035;29;20433;-84
2021/12/13 07:13:34;;;;;;;3.45;0.70;;;;;;;2.26;56.23;95083.88;4915947;29;20047;-84
2021/12/13 07:16:13;;;;;;;2.00;0.50;;;;;;;2.21;57.77;95080.31;4900813;29;20112;-84
2021/12/13 07:22:04;;;;;;;2.70;0.68;;;;;;;2.22;58.30;95077.53;4907001;29;20043;-84
2021/12/13 07:24:42;;;;;;;2.55;0.80;;;;;;;2.30;57.38;95079.13;4920573;29;20114;-84
2021/12/13 07:27:33;;;;;;;1.10;0.60;;;;;;;2.40;57.47;95081.31;4920901;29;20040;-84
2021/12/13 07:30:12;;;;;;;4.15;1.83;;;;;;;2.66;55.46;95080.53;4913130;29;20050;-84
2021/12/13 07:32:43;;;;;;;15.85;5.82;;;;;;;3.03;52.52;95087.09;4903355;29;20056;-84
2021/12/13 07:35:13;;;;;;;10.80;3.30;;;;;;;3.10;52.38;95080.09;4919391;29;20039;-84
2021/12/13 07:37:44;;;;;;;11.23;3.85;;;;;;;2.91;53.97;95081.69;4920726;29;20465;-84
2021/12/13 07:40:19;;;;;;;2.70;1.20;;;;;;;2.78;55.61;95082.53;4919486;29;20340;-84
2021/12/13 07:42:55;;;;;;;1.70;0.77;;;;;;;3.01;50.29;95086.47;4920028;29;20106;-85
2021/12/13 07:45:42;;;;;;;0.93;0.68;;;;;;;3.37;49.43;95083.44;4916431;29;20043;-84
2021/12/13 07:48:11;;;;;;;1.55;0.93;;;;;;;3.91;49.12;95079.81;4919172;29;20035;-84
2021/12/13 07:50:37;;;;;;;4.75;1.08;;;;;;;3.79;50.31;95082.25;4919463;29;20512;-85
2021/12/13 07:53:07;;;;;;;0.90;0.60;;;;;;;3.77;50.04;95074.69;4919313;29;20040;-85
2021/12/13 07:55:45;;;;;;;1.95;1.00;;;;;;;3.95;49.67;95070.63;4919779;29;20060;-85
2021/12/13 07:58:16;;;;;;;2.90;1.40;;;;;;;3.94;52.72;95075.00;4920521;29;20095;-85
2021/12/13 08:00:41;;;;;;;1.88;0.80;;;;;;;3.81;56.67;95078.47;4903954;29;20350;-85
2021/12/13 08:03:15;;;;;;;1.83;0.60;;;;;;;3.53;58.41;95082.16;4918655;29;20036;-85
2021/12/13 08:05:52;;;;;;;3.15;0.70;;;;;;;3.54;66.81;95080.38;4919376;29;20156;-85
2021/12/13 08:08:24;;;;;;;1.25;0.60;;;;;;;3.55;63.75;95079.38;4919023;29;20050;-85
2021/12/13 08:10:52;;;;;;;1.63;0.50;;;;;;;3.60;55.13;95084.72;4920198;29;20032;-85
2021/12/13 08:13:25;;;;;;;1.58;0.50;;;;;;;3.70;57.35;95079.09;4918642;29;20386;-85
2021/12/13 08:15:54;;;;;;;1.23;0.80;;;;;;;3.79;57.03;95082.25;4921482;29;20040;-85
2021/12/13 08:18:42;;;;;;;1.02;0.70;;;;;;;4.26;52.22;95084.59;4907181;29;20131;-85
2021/12/13 08:21:20;;;;;;;4.60;0.70;;;;;;;4.07;53.37;95079.34;4922493;29;20031;-85
2021/12/13 08:23:58;;;;;;;1.65;0.85;;;;;;;4.27;61.22;95075.81;4906804;29;20085;-85
2021/12/13 08:26:31;;;;;;;2.45;0.63;;;;;;;4.17;60.55;95072.91;4922648;29;20063;-85
2021/12/13 08:28:58;;;;;;;1.23;0.65;;;;;;;4.18;60.76;95085.66;4907118;29;20028;-85
2021/12/13 08:31:30;;;;;;;1.83;0.77;;;;;;;4.26;62.13;95087.19;4906373;29;20175;-85
2021/12/13 08:34:02;;;;;;;1.52;0.80;;;;;;;4.27;61.74;95093.97;4906450;29;20043;-85
2021/12/13 08:36:31;;;;;;;1.95;0.77;;;;;;;4.25;55.30;95090.81;4907141;29;20047;-85
2021/12/13 08:39:04;;;;;;;2.25;0.85;;;;;;;4.32;54.67;95088.97;4922631;29;20353;-85
2021/12/13 08:41:50;;;;;;;1.13;0.60;;;;;;;4.51;58.55;95092.41;4922372;29;20124;-85
2021/12/13 08:44:21;;;;;;;1.67;0.85;;;;;;;4.47;57.88;95087.88;4923760;29;20024;-85
2021/12/13 08:46:55;;;;;;;1.50;0.82;;;;;;;4.64;54.68;95096.72;4923689;29;20434;-85
2021/12/13 08:49:23;;;;;;;2.17;0.90;;;;;;;4.86;54.75;95098.94;4906615;29;20035;-85
2021/12/13 08:52:15;;;;;;;2.00;0.70;;;;;;;5.00;54.77;95102.25;4921912;29;20036;-85
2021/12/13 08:54:53;;;;;;;2.10;0.90;;;;;;;5.14;56.03;95110.69;4922213;29;20418;-85
2021/12/13 08:57:50;;;;;;;1.48;0.75;;;;;;;5.15;55.83;95124.50;4923552;29;20095;-85
2021/12/13 09:00:27;;;;;;;0.93;0.60;;;;;;;5.23;58.35;95126.78;4923155;29;20032;-85
2021/12/13 09:03:17;;;;;;;1.20;0.70;;;;;;;5.08;57.94;95121.94;4921748;29;20027;-85
2021/12/13 09:06:03;;;;;;;1.30;0.70;;;;;;;5.06;54.32;95127.34;4906345;29;20028;-85
2021/12/13 09:08:40;;;;;;;1.92;0.70;;;;;;;4.89;51.41;95129.69;4923047;29;20032;-85
2021/12/13 09:11:32;;;;;;;2.28;0.93;;;;;;;4.85;55.27;95140.72;4921960;29;20028;-85
2021/12/13 09:14:10;;;;;;;1.65;0.70;;;;;;;4.59;57.00;95140.69;4905904;29;20039;-85
2021/12/13 09:17:06;;;;;;;1.52;0.80;;;;;;;4.56;55.90;95142.91;4922190;29;20047;-85
2021/12/13 09:19:35;;;;;;;1.85;0.65;;;;;;;4.76;59.02;95145.38;4922865;29;20430;-85
2021/12/13 09:22:14;;;;;;;1.02;0.50;;;;;;;5.18;58.65;95144.84;4905649;29;20468;-85
2021/12/13 09:24:54;;;;;;;0.75;0.50;;;;;;;5.65;60.11;95149.59;4922993;29;20338;-85
2021/12/13 09:27:29;;;;;;;1.27;0.68;;;;;;;5.85;58.52;95148.56;4905108;29;20028;-85
2021/12/13 09:30:00;;;;;;;1.13;0.50;;;;;;;5.92;57.14;95141.50;4921489;29;20357;-85
2021/12/13 09:32:35;;;;;;;0.98;0.60;;;;;;;5.91;56.38;95140.69;4921607;29;20082;-85
2021/12/13 09:35:37;;;;;;;1.20;0.70;;;;;;;6.14;55.55;95141.06;4921807;29;20036;-85
2021/12/13 09:38:31;;;;;;;1.23;0.70;;;;;;;6.26;58.08;95139.28;4905769;29;20028;-85
2021/12/13 09:41:18;;;;;;;2.07;0.80;;;;;;;6.50;57.38;95137.56;4919263;29;20043;-85
2021/12/13 09:43:49;;;;;;;0.77;0.40;;;;;;;6.83;56.00;95143.31;4888798;29;20123;-85
2021/12/13 09:46:21;;;;;;;1.73;0.77;;;;;;;7.32;57.22;95144.97;4921231;29;20060;-85
2021/12/13 09:48:52;;;;;;;1.13;0.60;;;;;;;7.47;59.16;95137.47;4905859;29;20067;-85
2021/12/13 09:51:30;;;;;;;1.70;0.80;;;;;;;7.45;59.97;95126.44;4921415;29;20144;-84
2021/12/13 09:53:59;;;;;;;2.22;0.73;;;;;;;7.35;54.28;95124.41;4922773;29;20031;-85
2021/12/13 09:56:26;;;;;;;1.30;0.63;;;;;;;7.44;56.56;95139.72;4905721;29;20032;-85
2021/12/13 09:58:59;;;;;;;1.25;0.70;;;;;;;7.40;54.63;95136.00;4921254;29;20031;-84
2021/12/13 10:01:31;;;;;;;1.27;0.60;;;;;;;7.14;59.67;95120.56;4919719;29;20032;-85
2021/12/13 10:04:02;;;;;;;4.97;0.95;;;;;;;7.08;57.03;95109.22;4921142;29;20481;-85
2021/12/13 10:06:53;;;;;;;2.50;0.75;;;;;;;7.19;53.64;95118.09;4920755;29;20028;-85
2021/12/13 10:09:23;;;;;;;2.40;0.80;;;;;;;7.16;54.91;95121.13;4905459;29;20032;-85
2021/12/13 10:11:48;;;;;;;1.00;0.60;;;;;;;7.21;54.59;95126.47;4920124;29;20024;-85
2021/12/13 10:14:20;;;;;;;1.77;0.80;;;;;;;6.93;60.97;95098.47;4921952;29;20359;-85
2021/12/13 10:16:49;;;;;;;5.25;1.05;;;;;;;6.72;58.50;95098.00;4922296;29;20040;-85
2021/12/13 10:19:19;;;;;;;1.40;0.80;;;;;;;6.79;56.26;95106.50;4916680;29;20028;-85
2021/12/13 10:21:46;;;;;;;1.60;0.68;;;;;;;6.87;57.34;95107.19;4881716;29;20091;-85
2021/12/13 10:24:28;;;;;;;4.50;0.57;;;;;;;6.85;52.74;95099.59;4904651;29;20072;-85
2021/12/13 10:26:56;;;;;;;1.40;0.77;;;;;;;6.79;55.66;95103.09;4907538;29;20039;-85
2021/12/13 10:29:24;;;;;;;3.10;0.75;;;;;;;6.76;58.25;95103.56;4905199;29;20092;-85
2021/12/13 10:32:00;;;;;;;1.80;0.80;;;;;;;6.21;61.80;95111.31;4897062;29;20087;-85
2021/12/13 10:34:32;;;;;;;0.95;0.45;;;;;;;6.13;59.31;95105.63;4904771;29;20036;-85
2021/12/13 10:37:03;;;;;;;1.25;0.70;;;;;;;6.12;58.12;95101.44;4922011;29;20032;-85
2021/12/13 10:39:37;;;;;;;1.25;0.60;;;;;;;5.88;58.30;95096.91;4920113;29;20040;-85
2021/12/13 10:42:10;;;;;;;;;;;;;;;5.87;63.34;95091.91;4921263;29;20436;-85
2021/12/13 10:44:38;;;;;;;1.33;0.70;;;;;;;5.88;60.48;95094.31;4920294;29;19911;-85
2021/12/13 10:47:13;;;;;;;1.20;0.60;;;;;;;5.76;60.32;95096.88;4921271;29;20028;-85
2021/12/13 10:49:41;;;;;;;0.80;0.60;;;;;;;5.87;63.21;95099.72;4919952;29;20054;-85
2021/12/13 10:52:14;;;;;;;1.20;0.77;;;;;;;5.72;62.59;95097.53;4920145;29;20063;-85
2021/12/13 10:54:46;;;;;;;0.95;0.52;;;;;;;5.69;60.86;95100.56;4919839;29;20035;-85
2021/12/13 10:57:19;;;;;;;1.10;0.60;;;;;;;5.67;55.79;95098.16;4921347;29;20063;-85
2021/12/13 10:59:45;;;;;;;;;;;;;;;5.70;53.54;95092.53;4921767;29;20036;-85
2021/12/13 11:02:16;;;;;;;1.08;0.60;;;;;;;6.03;59.07;95087.97;4935070;29;20273;-85
2021/12/13 11:04:54;;;;;;;1.88;0.70;;;;;;;6.30;55.42;95098.78;4921254;29;20051;-85
2021/12/13 11:07:21;;;;;;;4.15;0.77;;;;;;;6.65;56.33;95094.69;4920034;29;20083;-85
2021/12/13 11:09:48;;;;;;;1.15;0.70;;;;;;;6.81;55.06;95088.03;4921162;29;20382;-85
2021/12/13 11:12:20;;;;;;;1.23;0.63;;;;;;;7.02;55.85;95096.31;4919401;29;20457;-85
2021/12/13 11:14:49;;;;;;;164.85;68.45;;;;;;;7.36;55.12;95086.13;4919703;29;20456;-85
2021/12/13 11:17:19;;;;;;;66.95;32.95;;;;;;;7.44;53.46;95085.75;4919397;29;20130;-85
2021/12/13 11:19:48;;;;;;;18.77;8.52;;;;;;;7.53;51.38;95080.19;4920784;29;20028;-85
2021/12/13 11:22:23;;;;;;;49.30;26.55;;;;;;;7.66;52.48;95079.13;4919310;29;20040;-85
2021/12/13 11:24:52;;;;;;;36.83;21.45;;;;;;;7.86;54.96;95079.56;4919421;29;20020;-85
2021/12/13 11:27:21;;;;;;;41.95;21.27;;;;;;;7.88;53.54;95072.28;4919667;29;20036;-85
2021/12/13 11:29:50;;;;;;;36.78;17.38;;;;;;;7.90;53.42;95074.66;4925236;29;20152;-85
2021/12/13 11:33:04;;;;;;;35.60;17.05;;;;;;;8.02;52.41;95078.00;4915704;29;20111;-85
2021/12/13 11:36:07;;;;;;;12.35;7.63;;;;;;;8.10;51.11;95066.38;4909408;29;20138;-85
2021/12/13 11:38:50;;;;;;;28.02;15.15;;;;;;;8.11;49.80;95064.59;4900516;29;20345;-86
2021/12/13 11:41:48;;;;;;;13.37;6.90;;;;;;;8.11;49.69;95064.59;4900390;29;20088;-85
2021/12/13 11:44:51;;;;;;;8.32;4.55;;;;;;;8.16;51.79;95056.84;4900603;29;20043;-85
2021/12/13 11:47:50;;;;;;;5.93;1.70;;;;;;;8.11;49.67;95056.75;4900424;29;20036;-84
2021/12/13 11:50:42;;;;;;;5.53;3.63;;;;;;;8.16;50.42;95059.44;4900122;29;20031;-85
2021/12/13 11:53:35;;;;;;;5.22;2.72;;;;;;;8.12;54.81;95063.56;4899597;29;20518;-85
2021/12/13 11:56:36;;;;;;;29.40;15.88;;;;;;;8.19;55.53;95056.38;4901673;29;20036;-85
2021/12/13 11:59:28;;;;;;;4.63;2.33;;;;;;;8.17;52.20;95066.25;4893867;29;20039;-84
2021/12/13 12:02:03;;;;;;;10.82;5.72;;;;;;;8.14;50.97;95058.91;4899545;29;20036;-84
2021/12/13 12:04:50;;;;;;;17.55;8.15;;;;;;;8.09;51.95;95053.59;4901349;29;20020;-85
2021/12/13 12:07:53;;;;;;;19.95;11.07;;;;;;;8.06;51.83;95050.44;4901584;29;20039;-84
2021/12/13 12:10:48;;;;;;;4.72;2.55;;;;;;;8.07;52.82;95046.78;4901475;29;20032;-84
2021/12/13 12:13:41;;;;;;;10.23;4.35;;;;;;;8.13;55.29;95057.31;4901153;29;20339;-84
2021/12/13 12:16:07;;;;;;;12.80;7.35;;;;;;;8.13;54.54;95055.50;4900139;29;20123;-84
2021/12/13 12:18:38;;;;;;;18.50;10.43;;;;;;;8.22;54.24;95050.69;4884687;29;20096;-84
2021/12/13 12:21:31;;;;;;;12.00;6.72;;;;;;;8.27;54.48;95050.78;4900041;29;20025;-84
2021/12/13 12:23:58;;;;;;;13.13;8.32;;;;;;;8.32;54.40;95053.50;4900144;29;20037;-84
2021/12/13 12:26:25;;;;;;;15.70;10.25;;;;;;;8.37;54.75;95039.69;4900127;29;20033;-85
2021/12/13 12:28:58;;;;;;;5.07;2.60;;;;;;;8.45;54.08;95043.75;4900184;29;20056;-84
2021/12/13 12:31:31;;;;;;;15.00;6.28;;;;;;;8.58;53.89;95045.31;4884824;29;20067;-84
2021/12/13 12:33:58;;;;;;;14.68;8.30;;;;;;;8.70;52.32;95042.59;4884392;29;20210;-84
2021/12/13 12:36:38;;;;;;;11.68;7.25;;;;;;;8.70;50.58;95042.59;4884785;29;20035;-84
2021/12/13 12:39:05;;;;;;;11.32;6.50;;;;;;;8.67;50.93;95043.84;4901359;29;20438;-84
2021/12/13 12:41:51;;;;;;;6.75;3.97;;;;;;;8.72;46.64;95048.38;4900608;29;20435;-84
2021/12/13 12:44:28;;;;;;;3.00;1.67;;;;;;;8.66;50.88;95041.50;4900119;29;20034;-84
2021/12/13 12:46:54;;;;;;;3.05;1.17;;;;;;;8.85;52.62;95039.44;4899858;29;20084;-84
2021/12/13 12:49:23;;;;;;;44.80;23.08;;;;;;;8.78;52.37;95034.38;4899869;29;20527;-84
2021/12/13 12:51:52;;;;;;;33.53;16.50;;;;;;;8.90;52.63;95040.31;4899517;29;20494;-84
2021/12/13 12:54:19;;;;;;;3.70;1.77;;;;;;;8.77;52.65;95041.41;4899867;29;20351;-84
2021/12/13 12:56:52;;;;;;;16.63;6.60;;;;;;;8.83;53.28;95041.50;4899969;29;20426;-84
2021/12/13 12:59:24;;;;;;;73.55;27.30;;;;;;;8.82;50.05;95038.09;4903692;29;20036;-84
2021/12/13 13:02:04;;;;;;;192.38;69.70;;;;;;;8.83;49.33;95042.28;4918648;29;20031;-84
2021/12/13 13:04:36;;;;;;;236.43;67.78;;;;;;;8.83;49.32;95037.03;4903263;29;20032;-84
2021/12/13 13:07:17;;;;;;;320.50;103.03;;;;;;;8.84;48.88;95037.84;4916525;29;20036;-84
2021/12/13 13:09:46;;;;;;;68.55;22.83;;;;;;;8.89;49.40;95035.31;4914178;29;20076;-84
2021/12/13 13:12:33;;;;;;;89.38;33.03;;;;;;;8.86;49.89;95030.56;4908140;29;20122;-84
2021/12/13 13:15:13;;;;;;;8.75;3.45;;;;;;;8.85;49.19;95029.75;4937197;29;20036;-90
2021/12/13 13:17:45;;;;;;;14.80;5.65;;;;;;;8.96;50.60;95038.53;4906354;29;20028;-85
2021/12/13 13:20:10;;;;;;;4.00;1.60;;;;;;;9.00;53.06;95038.84;4906209;29;20035;-86
2021/12/13 13:22:40;;;;;;;60.83;24.67;;;;;;;8.96;49.88;95040.38;4921330;29;20032;-84
2021/12/13 13:25:12;;;;;;;57.58;23.02;;;;;;;8.90;49.98;95032.47;4921608;29;20456;-85
2021/12/13 13:27:38;;;;;;;25.30;10.95;;;;;;;8.94;48.71;95035.38;4921825;29;20040;-85
2021/12/13 13:30:11;;;;;;;4.68;1.70;;;;;;;8.95;49.10;95034.34;4922950;29;20455;-85
2021/12/13 13:32:37;;;;;;;;;;;;;;;9.02;48.38;95034.16;4921537;29;20135;-85
2021/12/13 13:35:04;;;;;;;5.80;2.47;;;;;;;9.02;49.65;95040.19;4921214;29;19915;-85
2021/12/13 13:37:32;;;;;;;9.98;3.25;;;;;;;9.05;49.50;95034.47;4921527;29;20346;-85
2021/12/13 13:40:09;;;;;;;2.28;1.15;;;;;;;9.29;50.21;95036.91;4886865;29;20037;-85
2021/12/13 13:42:39;;;;;;;4.75;1.10;;;;;;;9.51;49.55;95033.47;4886646;29;20035;-85
2021/12/13 13:45:07;;;;;;;1.83;1.20;;;;;;;9.59;51.06;95038.31;4886752;29;20123;-85
2021/12/13 13:47:40;;;;;;;18.08;8.55;;;;;;;9.48;47.39;95031.38;4871196;29;20065;-85
2021/12/13 13:50:42;;;;;;;9.32;4.70;;;;;;;9.49;48.62;95027.72;4886360;29;20024;-85
2021/12/13 13:53:19;;;;;;;4.30;1.00;;;;;;;9.51;50.56;95030.88;4885892;29;20024;-85
2021/12/13 13:55:50;;;;;;;2.55;1.20;;;;;;;9.54;47.65;95040.06;4886666;29;20044;-85
2021/12/13 13:58:19;;;;;;;3.38;1.48;;;;;;;9.50;46.81;95033.75;4903558;29;20434;-85
2021/12/13 14:00:56;;;;;;;2.22;1.10;;;;;;;9.45;47.43;95040.47;4870972;29;20040;-85
2021/12/13 14:03:34;;;;;;;1.38;0.82;;;;;;;9.57;48.51;95042.19;4901842;29;20316;-85
2021/12/13 14:06:01;;;;;;;3.28;1.30;;;;;;;9.52;49.89;95042.91;4896296;29;20029;-85
2021/12/13 14:08:27;;;;;;;2.35;1.20;;;;;;;9.41;50.98;95046.47;4903333;29;20347;-85
2021/12/13 14:10:55;;;;;;;2.70;1.20;;;;;;;9.24;48.13;95042.03;4902131;29;20036;-85
2021/12/13 14:13:23;;;;;;;2.40;1.13;;;;;;;8.94;47.61;95040.59;4912320;29;20036;-85
2021/12/13 14:15:51;;;;;;;3.33;1.52;;;;;;;8.96;49.21;95045.59;4920396;29;20102;-86
2021/12/13 14:18:27;;;;;;;4.43;1.40;;;;;;;8.75;49.71;95040.06;4917014;29;20069;-85
2021/12/13 14:21:08;;;;;;;3.53;1.35;;;;;;;8.66;47.74;95044.13;4886689;29;20055;-86
2021/12/13 14:23:36;;;;;;;3.47;1.52;;;;;;;8.23;49.11;95047.06;4933301;29;20059;-85
2021/12/13 14:26:12;;;;;;;3.22;1.45;;;;;;;7.96;49.50;95042.41;4920706;29;20043;-85
2021/12/13 14:28:50;;;;;;;5.10;1.55;;;;;;;7.70;50.89;95047.16;4920686;29;20056;-86
2021/12/13 14:31:25;;;;;;;2.72;1.30;;;;;;;7.94;49.59;95044.47;4921764;29;20036;-85
2021/12/13 14:34:00;;;;;;;4.03;1.50;;;;;;;7.65;50.30;95054.88;4920434;29;20338;-85
2021/12/13 14:36:35;;;;;;;4.13;2.03;;;;;;;7.36;53.16;95053.00;4921729;29;20067;-84
2021/12/13 14:39:34;;;;;;;3.30;1.58;;;;;;;7.38;51.62;95049.38;4918976;29;20079;-85